createdAt,value
2022-10-10T00:02:10.001Z,100473.09
2022-10-10T00:05:14.101Z,100465.13
2022-10-10T00:08:17.125Z,100462.41
2022-10-10T00:11:22.242Z,100465.13
2022-10-10T00:14:25.299Z,100460.66
2022-10-10T00:17:28.397Z,100457.19
2022-10-10T00:20:32.484Z,100453.69
2022-10-10T00:23:35.503Z,100443.19
2022-10-10T00:26:38.673Z,100451.03
2022-10-10T00:29:41.424Z,100453.81
2022-10-10T00:32:44.200Z,100456.56
2022-10-10T00:35:49.290Z,100449.53
2022-10-10T00:38:52.633Z,100451.13
2022-10-10T00:41:55.738Z,100453.94
2022-10-10T00:45:22.752Z,100454.06
2022-10-10T00:48:28.655Z,100446.09
2022-10-10T00:51:33.414Z,100448.59
2022-10-10T00:54:39.285Z,100444.84
2022-10-10T00:57:43.174Z,100457.63
2022-10-10T01:00:46.541Z,100453.19
2022-10-10T01:03:50.067Z,100454.38
2022-10-10T01:06:54.184Z,100455.47
2022-10-10T01:10:00.121Z,100442.19
2022-10-10T01:13:12.829Z,100447.53
2022-10-10T01:16:22.035Z,100444.59
2022-10-10T01:19:48.165Z,100453.00
2022-10-10T01:23:07.728Z,100445.16
2022-10-10T01:26:39.318Z,100445.22
2022-10-10T01:29:48.613Z,100439.28
2022-10-10T01:32:55.496Z,100454.25
2022-10-10T01:36:05.611Z,100441.56
2022-10-10T01:39:32.499Z,100437.31
2022-10-10T01:42:42.275Z,100436.53
2022-10-10T01:45:47.458Z,100431.03
2022-10-10T01:48:53.520Z,100427.28
2022-10-10T01:52:12.013Z,100424.66
2022-10-10T01:55:28.325Z,100421.97
2022-10-10T01:59:03.656Z,100431.22
2022-10-10T02:02:16.547Z,100427.00
2022-10-10T02:05:26.976Z,100420.00
2022-10-10T02:08:34.521Z,100422.03
2022-10-10T02:11:40.573Z,100398.25
2022-10-10T02:14:45.733Z,100418.06
2022-10-10T02:17:52.318Z,100416.78
2022-10-10T02:20:56.404Z,100418.41
2022-10-10T02:24:03.405Z,100419.53
2022-10-10T02:27:12.458Z,100418.06
2022-10-10T02:30:16.714Z,100417.41
2022-10-10T02:33:28.262Z,100421.25
2022-10-10T02:36:32.843Z,100421.41
2022-10-10T02:39:40.185Z,100427.00
2022-10-10T02:42:44.034Z,100426.22
2022-10-10T02:45:47.649Z,100423.56
2022-10-10T02:48:52.175Z,100420.03
2022-10-10T02:51:54.966Z,100420.16
2022-10-10T02:54:57.690Z,100414.75
2022-10-10T02:58:00.728Z,100414.06
2022-10-10T03:01:03.571Z,100395.09
2022-10-10T03:04:07.964Z,100394.44
2022-10-10T03:07:10.679Z,100398.94
2022-10-10T03:10:13.743Z,100406.91
2022-10-10T03:13:18.577Z,100397.78
2022-10-10T03:16:21.261Z,100399.38
2022-10-10T03:19:25.807Z,100394.69
2022-10-10T03:22:28.497Z,100399.03
2022-10-10T03:25:31.555Z,100398.22
2022-10-10T03:28:34.660Z,100397.59
2022-10-10T03:31:37.655Z,100398.47
2022-10-10T03:34:42.001Z,100402.03
2022-10-10T03:37:44.994Z,100401.06
2022-10-10T03:40:47.973Z,100389.72
2022-10-10T03:43:50.697Z,100413.22
2022-10-10T03:46:53.528Z,100407.13
2022-10-10T03:49:57.537Z,100414.13
2022-10-10T03:53:00.436Z,100407.03
2022-10-10T03:56:03.435Z,100403.38
2022-10-10T03:59:06.534Z,100397.72
2022-10-10T04:02:09.486Z,100409.69
2022-10-10T04:05:13.789Z,100408.84
2022-10-10T04:08:16.929Z,100403.56
2022-10-10T04:11:19.662Z,100408.97
2022-10-10T04:14:23.176Z,100409.00
2022-10-10T04:17:25.999Z,100410.78
2022-10-10T04:20:30.259Z,100414.47
2022-10-10T04:23:33.338Z,100417.94
2022-10-10T04:26:36.540Z,100416.78
2022-10-10T04:29:39.227Z,100412.56
2022-10-10T04:32:42.444Z,100398.31
2022-10-10T04:35:48.118Z,100402.03
2022-10-10T04:38:51.098Z,100389.59
2022-10-10T04:41:53.914Z,100389.69
2022-10-10T04:44:56.640Z,100391.53
2022-10-10T04:47:59.640Z,100386.22
2022-10-10T04:51:03.714Z,100383.59
2022-10-10T04:54:06.666Z,100387.25
2022-10-10T04:57:09.412Z,100394.47
2022-10-10T05:00:13.710Z,100390.03
2022-10-10T05:03:16.385Z,100389.09
2022-10-10T05:06:20.812Z,100394.47
2022-10-10T05:09:23.934Z,100399.00
2022-10-10T05:12:27.155Z,100397.28
2022-10-10T05:15:29.903Z,100394.53
2022-10-10T05:18:32.977Z,100399.91
2022-10-10T05:21:37.593Z,100392.03
2022-10-10T05:24:40.363Z,100390.19
2022-10-10T05:27:43.319Z,100387.47
2022-10-10T05:30:46.458Z,100387.66
2022-10-10T05:33:49.421Z,100395.75
2022-10-10T05:36:53.700Z,100393.94
2022-10-10T05:39:56.481Z,100409.19
2022-10-10T05:42:59.218Z,100407.31
2022-10-10T05:46:02.539Z,100400.78
2022-10-10T05:49:05.545Z,100387.59
2022-10-10T05:52:10.147Z,100407.91
2022-10-10T05:55:13.075Z,100391.78
2022-10-10T05:58:16.192Z,100396.72
2022-10-10T06:01:19.705Z,100388.66
2022-10-10T06:04:23.388Z,100399.59
2022-10-10T06:07:45.531Z,100382.16
2022-10-10T06:10:50.401Z,100401.56
2022-10-10T06:13:54.321Z,100405.91
2022-10-10T06:16:57.051Z,100404.06
2022-10-10T06:20:00.162Z,100412.19
2022-10-10T06:23:04.822Z,100421.19
2022-10-10T06:26:07.912Z,100419.16
2022-10-10T06:29:10.875Z,100419.00
2022-10-10T06:32:14.622Z,100430.47
2022-10-10T06:35:17.431Z,100434.59
2022-10-10T06:38:22.069Z,100423.66
2022-10-10T06:41:24.917Z,100427.03
2022-10-10T06:44:27.862Z,100412.72
2022-10-10T06:47:31.628Z,100416.31
2022-10-10T06:50:34.354Z,100418.09
2022-10-10T06:53:38.437Z,100411.69
2022-10-10T06:56:41.133Z,100407.84
2022-10-10T06:59:44.197Z,100413.56
2022-10-10T07:02:47.414Z,100414.84
2022-10-10T07:05:52.025Z,100422.88
2022-10-10T07:08:56.060Z,100411.78
2022-10-10T07:11:58.857Z,100407.69
2022-10-10T07:15:01.823Z,100410.88
2022-10-10T07:18:04.909Z,100407.50
2022-10-10T07:21:07.865Z,100430.16
2022-10-10T07:24:12.001Z,100429.66
2022-10-10T07:27:14.808Z,100411.97
2022-10-10T07:30:17.699Z,100412.63
2022-10-10T07:33:20.382Z,100422.88
2022-10-10T07:36:23.273Z,100416.75
2022-10-10T07:39:27.783Z,100429.97
2022-10-10T07:42:30.484Z,100429.53
2022-10-10T07:45:36.323Z,100431.69
2022-10-10T07:48:40.398Z,100415.34
2022-10-10T07:51:43.165Z,100424.53
2022-10-10T07:54:47.482Z,100428.69
2022-10-10T07:57:53.434Z,100422.19
2022-10-10T08:01:03.606Z,100430.31
2022-10-10T08:04:06.898Z,100429.66
2022-10-10T08:07:09.780Z,100427.91
2022-10-10T08:10:14.087Z,100429.19
2022-10-10T08:13:17.098Z,100418.78
2022-10-10T08:16:20.843Z,100420.91
2022-10-10T08:19:23.811Z,100436.09
2022-10-10T08:22:26.828Z,100432.19
2022-10-10T08:25:30.902Z,100427.34
2022-10-10T08:28:34.427Z,100417.81
2022-10-10T08:31:37.229Z,100433.66
2022-10-10T08:34:39.924Z,100420.75
2022-10-10T08:37:43.113Z,100421.47
2022-10-10T08:40:50.025Z,100425.41
2022-10-10T08:43:57.844Z,100430.28
2022-10-10T08:47:03.688Z,100420.44
2022-10-10T08:50:12.958Z,100426.28
2022-10-10T08:53:23.244Z,100413.97
2022-10-10T08:56:31.958Z,100423.69
2022-10-10T08:59:37.550Z,100422.47
2022-10-10T09:02:58.283Z,100428.41
2022-10-10T09:06:15.674Z,100417.44
2022-10-10T09:09:27.183Z,100412.59
2022-10-10T09:12:37.731Z,100399.03
2022-10-10T09:15:46.969Z,100397.44
2022-10-10T09:18:59.706Z,100388.03
2022-10-10T09:22:11.850Z,100394.56
2022-10-10T09:25:19.930Z,100389.06
2022-10-10T09:28:36.941Z,100390.81
2022-10-10T09:31:42.798Z,100391.13
2022-10-10T09:34:49.018Z,100386.13
2022-10-10T09:37:56.095Z,100374.88
2022-10-10T09:41:04.068Z,100371.22
2022-10-10T09:44:12.637Z,100365.28
2022-10-10T09:47:17.777Z,100370.06
2022-10-10T09:50:20.652Z,100367.78
2022-10-10T09:53:23.565Z,100364.66
2022-10-10T09:56:31.853Z,100366.41
2022-10-10T09:59:41.292Z,100357.06
2022-10-10T10:02:44.012Z,100363.75
2022-10-10T10:05:54.304Z,100356.97
2022-10-10T10:09:01.860Z,100351.13
2022-10-10T10:12:06.976Z,100358.84
2022-10-10T10:15:19.766Z,100352.69
2022-10-10T10:18:25.796Z,100355.28
2022-10-10T10:21:29.798Z,100340.50
2022-10-10T10:24:36.386Z,100348.72
2022-10-10T10:27:39.550Z,100353.63
2022-10-10T10:30:45.020Z,100359.41
2022-10-10T10:33:57.609Z,100357.97
2022-10-10T10:37:13.930Z,100355.25
2022-10-10T10:40:31.498Z,100353.81
2022-10-10T10:43:48.038Z,100340.53
2022-10-10T10:47:04.879Z,100342.75
2022-10-10T10:50:24.877Z,100331.53
2022-10-10T10:53:40.107Z,100342.25
2022-10-10T10:56:48.947Z,100326.06
2022-10-10T11:00:26.256Z,100324.06
2022-10-10T11:05:16.593Z,100325.88
2022-10-10T11:07:20.580Z,100316.88
2022-10-10T11:10:34.941Z,100308.97
2022-10-10T11:13:46.994Z,100309.88
2022-10-10T11:16:53.942Z,100298.78
2022-10-10T11:20:03.504Z,100298.69
2022-10-10T11:23:12.091Z,100295.00
2022-10-10T11:26:21.034Z,100285.47
2022-10-10T11:29:28.144Z,100292.03
2022-10-10T11:32:36.447Z,100292.41
2022-10-10T11:35:45.595Z,100284.19
2022-10-10T11:38:52.646Z,100283.91
2022-10-10T11:41:59.266Z,100286.41
2022-10-10T11:45:08.025Z,100278.00
2022-10-10T11:48:20.265Z,100276.00
2022-10-10T11:51:39.023Z,100271.66
2022-10-10T11:54:47.119Z,100267.38
2022-10-10T11:57:56.072Z,100265.06
2022-10-10T12:01:04.392Z,100253.75
2022-10-10T12:04:07.525Z,100251.91
2022-10-10T12:07:18.698Z,100240.22
2022-10-10T12:10:26.158Z,100226.75
2022-10-10T12:13:34.236Z,100235.41
2022-10-10T12:16:39.599Z,100234.66
2022-10-10T12:19:42.754Z,100228.13
2022-10-10T12:23:20.810Z,100230.88
2022-10-10T12:26:24.540Z,100216.75
2022-10-10T12:29:42.767Z,100221.72
2022-10-10T12:32:46.541Z,100217.59
2022-10-10T12:35:49.606Z,100211.72
2022-10-10T12:39:25.863Z,100214.09
2022-10-10T12:42:33.256Z,100210.31
2022-10-10T12:46:12.650Z,100208.31
2022-10-10T12:49:20.274Z,100207.06
2022-10-10T12:52:27.288Z,100208.66
2022-10-10T12:55:32.756Z,100213.16
2022-10-10T12:58:40.627Z,100208.41
2022-10-10T13:01:47.600Z,100208.91
2022-10-10T13:04:54.256Z,100199.56
2022-10-10T13:08:01.465Z,100196.06
2022-10-10T13:11:08.626Z,100202.53
2022-10-10T13:14:14.966Z,100209.53
2022-10-10T13:17:24.677Z,100203.34
2022-10-10T13:20:35.150Z,100209.78
2022-10-10T13:23:43.293Z,100208.06
2022-10-10T13:26:49.369Z,100214.03
2022-10-10T13:29:55.292Z,100222.47
2022-10-10T13:32:58.739Z,100218.47
2022-10-10T13:36:08.000Z,100230.34
2022-10-10T13:39:17.779Z,100233.84
2022-10-10T13:42:31.717Z,100234.84
2022-10-10T13:45:45.563Z,100235.63
2022-10-10T13:48:49.144Z,100233.09
2022-10-10T13:52:02.994Z,100232.59
2022-10-10T13:55:17.041Z,100234.09
2022-10-10T13:58:20.474Z,100229.31
2022-10-10T14:01:35.417Z,100229.59
2022-10-10T14:04:45.216Z,100238.94
2022-10-10T14:07:50.398Z,100237.84
2022-10-10T14:10:58.243Z,100236.44
2022-10-10T14:14:06.746Z,100245.09
2022-10-10T14:17:12.778Z,100242.59
2022-10-10T14:20:15.873Z,100238.25
2022-10-10T14:23:18.953Z,100240.97
2022-10-10T14:26:22.817Z,100243.97
2022-10-10T14:29:25.775Z,100248.06
2022-10-10T14:32:30.136Z,100245.81
2022-10-10T14:35:33.928Z,100245.56
2022-10-10T14:38:37.143Z,100249.94
2022-10-10T14:41:40.150Z,100247.56
2022-10-10T14:44:43.426Z,100248.53
2022-10-10T14:47:47.747Z,100245.81
2022-10-10T14:50:53.093Z,100242.56
2022-10-10T14:54:12.360Z,100249.94
2022-10-10T14:57:17.369Z,100252.31
2022-10-10T15:00:23.301Z,100255.59
2022-10-10T15:03:27.321Z,100261.56
2022-10-10T15:06:30.036Z,100263.06
2022-10-10T15:09:40.888Z,100276.66
2022-10-10T15:12:46.303Z,100274.94
2022-10-10T15:15:49.122Z,100280.94
2022-10-10T15:18:54.597Z,100278.13
2022-10-10T15:21:57.449Z,100289.72
2022-10-10T15:25:00.610Z,100293.94
2022-10-10T15:28:03.920Z,100285.66
2022-10-10T15:31:06.695Z,100289.91
2022-10-10T15:34:10.755Z,100301.63
2022-10-10T15:37:13.453Z,100298.66
2022-10-10T15:40:19.619Z,100295.66
2022-10-10T15:43:22.335Z,100298.16
2022-10-10T15:46:26.575Z,100302.78
2022-10-10T15:49:33.645Z,100305.88
2022-10-10T15:52:37.242Z,100306.34
2022-10-10T15:55:43.429Z,100315.06
2022-10-10T15:58:46.144Z,100310.06
2022-10-10T16:01:48.969Z,100310.00
2022-10-10T16:04:53.314Z,100308.22
2022-10-10T16:07:56.189Z,100315.41
2022-10-10T16:10:59.274Z,100323.75
2022-10-10T16:14:02.294Z,100322.03
2022-10-10T16:17:05.267Z,100332.50
2022-10-10T16:20:11.462Z,100339.75
2022-10-10T16:23:14.249Z,100337.16
2022-10-10T16:26:19.335Z,100333.88
2022-10-10T16:29:22.433Z,100328.63
2022-10-10T16:32:25.123Z,100347.84
2022-10-10T16:35:29.519Z,100358.00
2022-10-10T16:38:32.238Z,100358.78
2022-10-10T16:41:47.632Z,100363.22
2022-10-10T16:44:51.546Z,100357.41
2022-10-10T16:47:54.290Z,100374.75
2022-10-10T16:51:03.540Z,100373.16
2022-10-10T16:54:07.546Z,100383.69
2022-10-10T16:57:12.113Z,100387.22
2022-10-10T17:00:15.301Z,100395.34
2022-10-10T17:03:18.034Z,100401.31
2022-10-10T17:06:24.346Z,100395.06
2022-10-10T17:09:27.187Z,100404.22
2022-10-10T17:12:29.919Z,100409.91
2022-10-10T17:15:32.983Z,100409.69
2022-10-10T17:18:36.856Z,100415.56
2022-10-10T17:21:41.278Z,100403.84
2022-10-10T17:24:44.146Z,100406.97
2022-10-10T17:27:46.820Z,100416.44
2022-10-10T17:30:51.083Z,100414.97
2022-10-10T17:33:54.984Z,100428.22
2022-10-10T17:36:59.369Z,100429.09
2022-10-10T17:40:02.202Z,100434.47
2022-10-10T17:43:05.807Z,100432.31
2022-10-10T17:46:33.099Z,100432.38
2022-10-10T17:49:34.445Z,100428.00
2022-10-10T17:52:38.526Z,100431.72
2022-10-10T17:55:42.534Z,100425.88
2022-10-10T17:58:45.900Z,100434.44
2022-10-10T18:01:48.719Z,100430.84
2022-10-10T18:04:51.403Z,100429.16
2022-10-10T18:07:56.732Z,100427.84
2022-10-10T18:10:59.790Z,100432.50
2022-10-10T18:14:03.121Z,100438.06
2022-10-10T18:17:05.893Z,100442.03
2022-10-10T18:20:10.464Z,100446.03
2022-10-10T18:23:14.733Z,100452.72
2022-10-10T18:26:19.951Z,100453.09
2022-10-10T18:29:23.108Z,100453.78
2022-10-10T18:32:25.859Z,100459.94
2022-10-10T18:35:28.670Z,100465.91
2022-10-10T18:38:32.685Z,100467.47
2022-10-10T18:41:36.084Z,100468.84
2022-10-10T18:44:39.126Z,100476.81
2022-10-10T18:47:41.840Z,100480.13
2022-10-10T18:50:44.521Z,100501.75
2022-10-10T18:53:49.308Z,100532.38
2022-10-10T18:56:51.990Z,100557.63
2022-10-10T18:59:55.373Z,100562.47
2022-10-10T19:02:58.117Z,100569.69
2022-10-10T19:06:02.740Z,100563.84
2022-10-10T19:09:09.648Z,100561.59
2022-10-10T19:12:12.503Z,100567.56
2022-10-10T19:15:15.643Z,100582.38
2022-10-10T19:18:19.121Z,100566.97
2022-10-10T19:21:22.036Z,100571.97
2022-10-10T19:24:26.195Z,100571.38
2022-10-10T19:27:28.877Z,100575.16
2022-10-10T19:30:31.697Z,100554.13
2022-10-10T19:33:34.713Z,100552.97
2022-10-10T19:36:39.828Z,100554.72
2022-10-10T19:39:45.940Z,100552.59
2022-10-10T19:42:48.730Z,100563.97
2022-10-10T19:45:52.353Z,100543.81
2022-10-10T19:48:57.940Z,100553.94
2022-10-10T19:52:00.641Z,100562.84
2022-10-10T19:55:05.386Z,100552.84
2022-10-10T19:58:08.415Z,100563.56
2022-10-10T20:01:12.979Z,100581.59
2022-10-10T20:04:15.869Z,100581.66
2022-10-10T20:07:19.066Z,100555.38
2022-10-10T20:10:23.570Z,100544.03
2022-10-10T20:13:26.472Z,100567.00
2022-10-10T20:16:29.595Z,100574.28
2022-10-10T20:19:32.432Z,100584.31
2022-10-10T20:22:35.586Z,100593.38
2022-10-10T20:25:41.642Z,100602.94
2022-10-10T20:28:45.963Z,100604.50
2022-10-10T20:31:48.840Z,100595.47
2022-10-10T20:34:51.870Z,100599.94
2022-10-10T20:37:54.668Z,100613.50
2022-10-10T20:40:59.018Z,100633.53
2022-10-10T20:44:04.436Z,100641.91
2022-10-10T20:47:07.795Z,100644.63
2022-10-10T20:50:11.499Z,100649.34
2022-10-10T20:53:14.346Z,100644.78
2022-10-10T20:56:18.598Z,100641.25
2022-10-10T20:59:24.332Z,100631.97
2022-10-10T21:02:27.407Z,100644.63
2022-10-10T21:05:30.084Z,100652.97
2022-10-10T21:08:33.095Z,100644.16
2022-10-10T21:11:38.067Z,100657.16
2022-10-10T21:14:40.724Z,100663.47
2022-10-10T21:17:43.607Z,100664.13
2022-10-10T21:20:46.544Z,100661.13
2022-10-10T21:23:53.850Z,100661.84
2022-10-10T21:27:00.909Z,100663.44
2022-10-10T21:30:03.710Z,100667.19
2022-10-10T21:33:06.693Z,100665.28
2022-10-10T21:36:09.687Z,100667.66
2022-10-10T21:39:13.194Z,100680.16
2022-10-10T21:42:17.262Z,100674.56
2022-10-10T21:45:19.967Z,100672.66
2022-10-10T21:48:22.678Z,100678.25
2022-10-10T21:51:26.938Z,100681.03
2022-10-10T21:54:29.689Z,100689.47
2022-10-10T21:57:34.000Z,100684.34
2022-10-10T22:00:37.692Z,100685.59
2022-10-10T22:03:40.643Z,100692.59
2022-10-10T22:06:45.045Z,100693.50
2022-10-10T22:09:48.250Z,100686.28
2022-10-10T22:12:53.122Z,100703.44
2022-10-10T22:15:55.998Z,100695.44
2022-10-10T22:18:59.332Z,100699.81
2022-10-10T22:22:02.027Z,100713.53
2022-10-10T22:25:05.762Z,100706.34
2022-10-10T22:28:10.171Z,100718.97
2022-10-10T22:31:15.107Z,100711.69
2022-10-10T22:34:17.838Z,100709.91
2022-10-10T22:37:20.591Z,100720.94
2022-10-10T22:40:23.633Z,100722.78
2022-10-10T22:43:27.761Z,100726.38
2022-10-10T22:46:30.574Z,100718.97
2022-10-10T22:49:34.910Z,100721.63
2022-10-10T22:52:37.811Z,100720.66
2022-10-10T22:55:40.846Z,100727.25
2022-10-10T22:58:45.283Z,100739.91
2022-10-10T23:01:49.071Z,100737.44
2022-10-10T23:04:51.760Z,100740.97
2022-10-10T23:07:54.838Z,100750.09
2022-10-10T23:10:57.555Z,100750.09
2022-10-10T23:14:02.175Z,100755.56
2022-10-10T23:17:05.128Z,100753.72
2022-10-10T23:20:09.134Z,100761.81
2022-10-10T23:23:12.137Z,100757.31
2022-10-10T23:26:15.365Z,100755.56
2022-10-10T23:29:20.063Z,100759.56
2022-10-10T23:32:23.562Z,100757.66
2022-10-10T23:35:26.620Z,100718.09
2022-10-10T23:38:30.370Z,100764.84
2022-10-10T23:41:33.079Z,100768.56
2022-10-10T23:44:37.557Z,100767.75
2022-10-10T23:47:40.237Z,100778.88
2022-10-10T23:50:43.263Z,100777.03
2022-10-10T23:53:45.951Z,100783.78
2022-10-10T23:56:48.683Z,100783.06
2022-10-10T23:59:52.898Z,100789.56
